Flight Track Log - Related Links

Times and Time Zones

All times are in EDT time to prevent confusion due to time zone crossing. See the LOF3359 flight status page for this flight to view local times or setup timezone preferences in your user account.

Time Position Orientation Groundspeed Altitude Reporting Facility
EDT Latitude Longitude Course Direction KTS MPH feet Rate Location/Type
Tue 02:27:21 PM 39.8697 -84.2378 198° South 164 189 2,500  Level Indianapolis Center
Tue 02:27:56 PM 39.8425 -84.2336 173° South 195 224 3,600 2,125 Climbing Indianapolis Center
Tue 02:28:57 PM 39.8211 -84.1675 113° Southeast 238 274 5,900 2,098 Climbing Indianapolis Center
Tue 02:29:59 PM 39.8431 -84.0767 73° East 254 292 7,900 1,694 Climbing Indianapolis Center
Tue 02:30:00 PM 39.9695 -83.6982 79° East  Level FlightAware Approximate
Tue 02:31:00 PM 39.9896 -83.5681 79° East  Level FlightAware Approximate
Tue 02:31:01 PM 39.8667 -83.9672 74° East 292 336 9,400  Level Indianapolis Center
Tue 02:32:00 PM 40.0135 -83.4392 74° East  Level FlightAware Approximate
Tue 02:32:03 PM 39.8964 -83.8233 75° East 345 397 11,400  Level Indianapolis Center
Tue 02:33:05 PM 39.9239 -83.6919 75° East 368 423 13,100 1,707 Climbing Indianapolis Center
Tue 02:34:06 PM 39.9467 -83.5556 78° East 379 436 14,900 1,707 Climbing Indianapolis Center
Tue 02:35:08 PM 39.9369 -83.4139 95° East 381 438 16,600 1,500 Climbing Indianapolis Center
Tue 02:36:10 PM 39.9233 -83.2711 97° East 388 447 18,000 1,403 Climbing Indianapolis Center
Tue 02:37:12 PM 39.9100 -83.1256 97° East 396 456 19,500 1,452 Climbing Indianapolis Center
Tue 02:38:14 PM 39.8961 -82.9792 97° East 403 464 21,000 1,403 Climbing Indianapolis Center
Tue 02:39:16 PM 39.8825 -82.8306 97° East 408 470 22,400 1,355 Climbing Indianapolis Center
Tue 02:40:18 PM 39.8675 -82.6819 97° East 410 472 23,800 1,317 Climbing Indianapolis Center
Tue 02:41:19 PM 39.8531 -82.5314 97° East 416 479 25,100 1,220 Climbing Indianapolis Center
Tue 02:42:21 PM 39.8367 -82.3781 98° East 422 486 26,300 919 Climbing Indianapolis Center
Tue 02:43:23 PM 39.8219 -82.2247 97° East 424 488 27,000 339 Climbing Indianapolis Center
Tue 02:44:25 PM 39.8047 -82.0625 98° East 445 512 27,000  Level Indianapolis Center
Tue 02:45:27 PM 39.7847 -81.8647 97° East 469 540 27,000  Level Indianapolis Center
Tue 02:46:29 PM 39.7664 -81.6911 98° East 478 550 27,000  Level Indianapolis Center
Tue 02:47:08 PM 39.7583 -81.5875 96° East 478 550 27,000  Level Cleveland Center
Tue 02:48:08 PM 39.7389 -81.4144 98° East 483 556 27,000  Level Cleveland Center
Tue 02:49:08 PM 39.7214 -81.2417 97° East 483 556 27,000  Level Cleveland Center
Tue 02:50:08 PM 39.7033 -81.0714 98° East 483 556 27,000  Level Cleveland Center
Tue 02:51:08 PM 39.6811 -80.9014 100° East 483 556 27,000  Level Cleveland Center
Tue 02:52:08 PM 39.6628 -80.7286 98° East 483 556 27,000  Level Cleveland Center
Tue 02:53:08 PM 39.6397 -80.5400 99° East 483 556 27,000  Level Cleveland Center
Tue 02:54:08 PM 39.6208 -80.3675 98° East 483 556 27,000  Level Cleveland Center
Tue 02:54:31 PM 39.6147 -80.3194 99° East 498 573 27,000  Level Washington Center
Tue 02:55:31 PM 39.5942 -80.1483 99° East 503 579 27,000  Level Washington Center
Tue 02:56:31 PM 39.5736 -79.9747 99° East 492 566 27,000  Level Washington Center
Tue 02:57:31 PM 39.5506 -79.8011 100° East 492 566 27,000  Level Washington Center
Tue 02:58:31 PM 39.5208 -79.6325 103° East 487 560 27,000 -50 Level Washington Center
Tue 02:59:31 PM 39.4869 -79.4583 104° East 487 560 26,900 -800 Descending Washington Center
Tue 03:00:31 PM 39.4569 -79.2900 103° East 487 560 25,400 -1,800 Descending Washington Center
Tue 03:01:31 PM 39.4286 -79.1194 102° East 459 528 23,300 -2,400 Descending Washington Center
Tue 03:02:31 PM 39.4017 -78.9678 103° East 444 511 20,600 -2,450 Descending Washington Center
Tue 03:03:31 PM 39.3700 -78.8292 106° East 418 481 18,400 -2,400 Descending Washington Center
Tue 03:04:31 PM 39.3447 -78.6886 103° East 396 456 15,800 -2,500 Descending Washington Center
Tue 03:05:31 PM 39.3208 -78.5589 103° East 388 447 13,400 -2,250 Descending Washington Center
Tue 03:06:31 PM 39.2969 -78.4236 103° East 378 435 11,300 -1,150 Descending Washington Center
Tue 03:07:31 PM 39.2581 -78.3097 114° Southeast 364 419 11,100 -350 Descending Washington Center
Tue 03:08:31 PM 39.2058 -78.2167 126° Southeast 333 383 10,600 -1,000 Descending Washington Center
Tue 03:09:31 PM 39.1556 -78.1239 125° Southeast 321 369 9,100 -1,250 Descending Washington Center
Tue 03:10:31 PM 39.0811 -78.0972 164° South 276 318 8,100 -850 Descending Washington Center
Tue 03:11:31 PM 39.0175 -78.0547 153° Southeast 266 306 7,400 -550 Descending Washington Center
Tue 03:12:31 PM 38.9856 -77.9789 118° Southeast 240 276 7,000 -650 Descending Washington Center
Tue 03:13:31 PM 38.9769 -77.8853 97° East 248 285 6,100 -500 Descending Washington Center
Tue 03:14:31 PM 38.9683 -77.7889 97° East 259 298 6,000 -101 Descending Washington Center
Tue 03:16:30 PM 38.9833 -77.6000 84° East 267 307 5,800 -503 Descending Potomac TRACON
Tue 03:17:30 PM 39.0500 -77.5833 11° North 273 314 4,500 -900 Descending Potomac TRACON
Tue 03:18:30 PM 39.1000 -77.5333 38° Northeast 249 287 4,000 -500 Descending Potomac TRACON

Login

Don't have an account? Register now (free) for customized features, flight alerts, and more!